Search for airport 
image banner adimage banner adimage banner ad
image banner ad

9CL2 - Christensen Ranch

Located in Hollister, United States

ICAO - 9CL2, IATA -

Data provided by Airmate  

General information

Coordinates: N36°52'18" W121°20'14"
Elevation is 380 feet MSL.
Magnetic variation is 15° East
View others Airports in California

Operational data

Special qualification required
Current time UTC:
Current local time:
Weather at : KCVH - Hollister Muni ( 7 km )
METAR: KCVH 210955Z AUTO 22006KT 10SM OVC007 14/12 A2993 RMK A01
View NOTAMs / SUP AIP / TFR affecting this airport [VIEW]
Communications frequencies: [VIEW]

Runways:

RWY identifierQFULength (ft)Width (ft)SurfaceLDA (ft)
07300050ASPH
25300050ASPH

Airport contact information

Address: Hollister United States

Satellite view of 9CL2